createdAt,value
2018-12-27T00:00:04.549Z,17.37
2018-12-27T00:05:20.816Z,16.93
2018-12-27T00:10:35.702Z,20.53
2018-12-27T00:15:50.358Z,15.67
2018-12-27T00:21:04.950Z,26.63
2018-12-27T00:26:19.852Z,17.80
2018-12-27T00:31:34.694Z,16.40
2018-12-27T00:36:49.774Z,14.90
2018-12-27T00:42:04.784Z,20.70
2018-12-27T00:47:19.991Z,20.50
2018-12-27T00:52:34.866Z,21.23
2018-12-27T00:57:49.541Z,20.53
2018-12-27T01:03:11.073Z,17.90
2018-12-27T01:08:20.750Z,15.97
2018-12-27T01:13:37.803Z,17.40
2018-12-27T01:18:52.491Z,18.60
2018-12-27T01:24:07.312Z,20.37
2018-12-27T01:29:22.386Z,24.37
2018-12-27T01:34:37.534Z,18.70
2018-12-27T01:39:52.244Z,25.67
2018-12-27T01:45:07.206Z,17.07
2018-12-27T01:50:21.996Z,17.73
2018-12-27T01:55:36.991Z,17.30
2018-12-27T02:00:51.923Z,21.07
2018-12-27T02:06:06.842Z,18.67
2018-12-27T02:11:21.378Z,19.10
2018-12-27T02:16:36.500Z,22.77
2018-12-27T02:21:51.563Z,25.47
2018-12-27T02:27:06.713Z,18.47
2018-12-27T02:32:21.588Z,18.63
2018-12-27T02:37:36.707Z,16.40
2018-12-27T02:42:51.822Z,18.37
2018-12-27T02:48:06.680Z,17.57
2018-12-27T02:53:21.277Z,24.50
2018-12-27T02:58:36.046Z,27.63
2018-12-27T03:03:50.818Z,28.23
2018-12-27T03:09:06.464Z,20.47
2018-12-27T03:14:21.206Z,21.13
2018-12-27T03:19:35.800Z,19.03
2018-12-27T03:24:50.631Z,19.63
2018-12-27T03:30:06.911Z,13.23
2018-12-27T03:35:21.415Z,13.40
2018-12-27T03:40:36.361Z,14.87
2018-12-27T03:45:51.213Z,12.00
2018-12-27T03:51:05.833Z,13.73
2018-12-27T03:56:20.573Z,17.07
2018-12-27T04:01:35.438Z,18.57
2018-12-27T04:06:49.914Z,17.87
2018-12-27T04:12:04.931Z,22.80
2018-12-27T04:17:20.067Z,16.37
2018-12-27T04:22:34.347Z,18.43
2018-12-27T04:27:49.304Z,16.40
2018-12-27T04:33:06.349Z,14.70
2018-12-27T04:38:20.639Z,19.67
2018-12-27T04:43:36.310Z,17.37
2018-12-27T04:48:51.325Z,16.17
2018-12-27T04:54:05.917Z,17.23
2018-12-27T04:59:20.708Z,14.80
2018-12-27T05:04:35.260Z,13.23
2018-12-27T05:09:49.942Z,16.17
2018-12-27T05:15:04.982Z,14.83
2018-12-27T05:20:19.393Z,15.40
2018-12-27T05:25:33.899Z,17.43
2018-12-27T05:30:48.457Z,14.20
2018-12-27T05:36:03.124Z,16.83
2018-12-27T05:41:17.613Z,15.40
2018-12-27T05:46:32.186Z,18.20
2018-12-27T05:51:46.679Z,13.20
2018-12-27T05:57:01.451Z,20.87
2018-12-27T06:02:16.374Z,16.13
2018-12-27T06:07:31.049Z,15.87
2018-12-27T06:12:45.814Z,14.63
2018-12-27T06:18:00.704Z,13.23
2018-12-27T06:23:15.653Z,15.93
2018-12-27T06:28:30.374Z,13.97
2018-12-27T06:33:44.620Z,10.97
2018-12-27T06:38:59.453Z,12.57
2018-12-27T06:44:15.525Z,11.23
2018-12-27T06:49:29.715Z,19.20
2018-12-27T06:54:44.528Z,17.90
2018-12-27T06:59:59.241Z,15.57
2018-12-27T07:05:15.522Z,15.37
2018-12-27T07:10:29.974Z,13.90
2018-12-27T07:15:44.552Z,15.80
2018-12-27T07:20:59.359Z,15.23
2018-12-27T07:26:14.250Z,13.50
2018-12-27T07:31:29.129Z,17.47
2018-12-27T07:36:43.482Z,13.73
2018-12-27T07:41:57.969Z,12.37
2018-12-27T07:47:12.319Z,15.63
2018-12-27T07:52:27.125Z,20.20
2018-12-27T07:57:41.948Z,13.47
2018-12-27T08:02:56.989Z,15.33
2018-12-27T08:08:11.656Z,17.00
2018-12-27T08:13:25.956Z,16.03
2018-12-27T08:18:40.547Z,12.57
2018-12-27T08:23:55.105Z,16.70
2018-12-27T08:29:09.890Z,17.43
2018-12-27T08:34:25.167Z,15.83
2018-12-27T08:39:39.723Z,18.97
2018-12-27T08:44:54.354Z,17.43
2018-12-27T08:50:08.949Z,10.93
2018-12-27T08:55:24.035Z,16.93
2018-12-27T09:00:38.934Z,22.87
2018-12-27T09:05:54.792Z,20.03
2018-12-27T09:11:09.582Z,19.63
2018-12-27T09:16:24.545Z,29.40
2018-12-27T09:21:39.009Z,21.03
2018-12-27T09:26:53.675Z,24.77
2018-12-27T09:32:08.716Z,29.00
2018-12-27T09:37:23.515Z,21.97
2018-12-27T09:42:38.081Z,20.27
2018-12-27T09:47:52.886Z,20.27
2018-12-27T09:53:07.636Z,28.17
2018-12-27T09:58:22.330Z,16.40
2018-12-27T10:03:37.147Z,23.70
2018-12-27T10:08:51.910Z,27.53
2018-12-27T10:14:06.500Z,23.10
2018-12-27T10:19:21.180Z,23.27
2018-12-27T10:24:36.138Z,28.87
2018-12-27T10:29:50.942Z,27.97
2018-12-27T10:35:05.899Z,21.90
2018-12-27T10:40:21.185Z,26.37
2018-12-27T10:45:36.575Z,18.30
2018-12-27T10:50:51.403Z,23.97
2018-12-27T10:56:06.013Z,22.13
2018-12-27T11:01:20.767Z,21.73
2018-12-27T11:06:35.505Z,17.53
2018-12-27T11:11:50.636Z,20.30
2018-12-27T11:17:05.455Z,23.73
2018-12-27T11:22:20.315Z,19.43
2018-12-27T11:27:35.083Z,19.30
2018-12-27T11:32:50.078Z,25.60
2018-12-27T11:38:04.775Z,23.70
2018-12-27T11:43:19.676Z,21.40
2018-12-27T11:48:34.139Z,25.63
2018-12-27T11:53:50.354Z,22.13
2018-12-27T11:59:04.952Z,31.47
2018-12-27T12:04:19.773Z,25.53
2018-12-27T12:09:33.920Z,28.40
2018-12-27T12:15:01.489Z,24.87
2018-12-27T12:20:16.100Z,27.17
2018-12-27T12:25:30.531Z,29.43
2018-12-27T12:30:45.864Z,27.27
2018-12-27T12:36:10.791Z,26.23
2018-12-27T12:41:25.489Z,21.03
2018-12-27T12:46:40.136Z,21.27
2018-12-27T12:51:54.508Z,35.63
2018-12-27T12:57:09.188Z,26.53
2018-12-27T13:02:23.947Z,25.73
2018-12-27T13:07:38.662Z,32.53
2018-12-27T13:12:55.175Z,34.33
2018-12-27T13:18:09.698Z,25.40
2018-12-27T13:23:24.181Z,25.37
2018-12-27T13:28:39.008Z,28.93
2018-12-27T13:33:53.885Z,22.63
2018-12-27T13:39:09.108Z,26.20
2018-12-27T13:44:23.375Z,20.77
2018-12-27T13:49:37.792Z,25.33
2018-12-27T13:54:52.664Z,19.23
2018-12-27T14:00:07.933Z,17.03
2018-12-27T14:05:34.022Z,23.07
2018-12-27T14:10:49.931Z,24.33
2018-12-27T14:16:04.500Z,15.37
2018-12-27T14:21:19.547Z,21.13
2018-12-27T14:26:33.437Z,24.50
2018-12-27T14:31:48.186Z,22.03
2018-12-27T14:37:02.977Z,19.13
2018-12-27T14:42:17.595Z,26.43
2018-12-27T14:47:32.312Z,25.33
2018-12-27T14:52:47.152Z,25.70
2018-12-27T14:58:01.923Z,21.77
2018-12-27T15:03:36.215Z,20.43
2018-12-27T15:08:52.447Z,31.13
2018-12-27T15:14:07.489Z,29.60
2018-12-27T15:19:22.360Z,23.90
2018-12-27T15:24:37.027Z,18.50
2018-12-27T15:29:51.923Z,24.80
2018-12-27T15:35:06.590Z,22.13
2018-12-27T15:40:21.571Z,25.17
2018-12-27T15:45:37.827Z,23.33
2018-12-27T15:50:52.488Z,24.10
2018-12-27T15:56:07.765Z,28.53
2018-12-27T16:01:23.882Z,26.17
2018-12-27T16:06:38.918Z,23.90
2018-12-27T16:11:53.891Z,27.90
2018-12-27T16:17:08.324Z,29.00
2018-12-27T16:22:23.032Z,27.47
2018-12-27T16:27:37.865Z,37.37
2018-12-27T16:32:52.919Z,32.40
2018-12-27T16:38:07.940Z,25.77
2018-12-27T16:43:22.436Z,31.17
2018-12-27T16:48:37.379Z,26.40
2018-12-27T16:53:51.842Z,28.97
2018-12-27T16:59:06.794Z,22.33
2018-12-27T17:04:21.247Z,31.67
2018-12-27T17:09:35.762Z,23.63
2018-12-27T17:14:50.683Z,26.50
2018-12-27T17:20:05.489Z,25.17
2018-12-27T17:25:20.355Z,22.23
2018-12-27T17:30:34.948Z,24.83
2018-12-27T17:35:50.532Z,24.27
2018-12-27T17:41:05.122Z,33.37
2018-12-27T17:46:19.892Z,26.33
2018-12-27T17:51:34.319Z,21.60
2018-12-27T17:56:48.921Z,25.10
2018-12-27T18:02:04.070Z,30.67
2018-12-27T18:07:18.552Z,20.63
2018-12-27T18:12:33.171Z,26.60
2018-12-27T18:17:47.539Z,33.07
2018-12-27T18:23:02.090Z,41.30
2018-12-27T18:28:17.608Z,37.33
2018-12-27T18:33:32.358Z,21.73
2018-12-27T18:38:47.271Z,24.07
2018-12-27T18:44:02.112Z,26.77
2018-12-27T18:49:20.604Z,25.43
2018-12-27T18:54:33.338Z,25.40
2018-12-27T19:00:06.364Z,24.37
2018-12-27T19:05:21.772Z,25.23
2018-12-27T19:10:37.144Z,25.83
2018-12-27T19:15:57.655Z,29.43
2018-12-27T19:21:24.461Z,31.63
2018-12-27T19:26:39.519Z,28.33
2018-12-27T19:31:54.137Z,30.17
2018-12-27T19:37:08.600Z,34.07
2018-12-27T19:42:23.479Z,44.43
2018-12-27T19:47:38.055Z,45.47
2018-12-27T19:52:52.776Z,46.53
2018-12-27T19:58:07.725Z,49.60
2018-12-27T20:03:22.766Z,43.50
2018-12-27T20:08:37.723Z,42.80
2018-12-27T20:13:52.220Z,41.40
2018-12-27T20:19:07.168Z,33.47
2018-12-27T20:24:21.691Z,54.60
2018-12-27T20:29:36.267Z,38.80
2018-12-27T20:34:51.329Z,25.30
2018-12-27T20:40:06.131Z,49.80
2018-12-27T20:45:20.875Z,39.10
2018-12-27T20:50:37.570Z,42.23
2018-12-27T20:55:52.110Z,36.03
2018-12-27T21:01:06.896Z,32.17
2018-12-27T21:06:21.918Z,37.10
2018-12-27T21:11:36.614Z,39.47
2018-12-27T21:16:51.141Z,45.13
2018-12-27T21:22:06.023Z,36.80
2018-12-27T21:27:21.118Z,40.97
2018-12-27T21:32:36.850Z,42.83
2018-12-27T21:37:51.479Z,47.60
2018-12-27T21:43:06.202Z,38.00
2018-12-27T21:48:21.219Z,39.87
2018-12-27T21:53:36.167Z,38.53
2018-12-27T21:58:50.916Z,42.30
2018-12-27T22:04:05.748Z,35.93
2018-12-27T22:09:19.966Z,39.60
2018-12-27T22:14:34.793Z,35.63
2018-12-27T22:19:49.991Z,29.83
2018-12-27T22:25:05.196Z,33.57
2018-12-27T22:30:20.409Z,32.83
2018-12-27T22:35:34.928Z,28.13
2018-12-27T22:40:49.738Z,31.90
2018-12-27T22:46:04.860Z,32.10
2018-12-27T22:51:19.591Z,31.73
2018-12-27T22:56:34.577Z,32.50
2018-12-27T23:01:49.189Z,41.17
2018-12-27T23:07:04.060Z,33.10
2018-12-27T23:12:19.140Z,32.67
2018-12-27T23:17:33.723Z,38.20
2018-12-27T23:22:48.609Z,32.10
2018-12-27T23:28:03.588Z,41.30
2018-12-27T23:33:18.278Z,36.07
2018-12-27T23:38:33.061Z,35.97
2018-12-27T23:43:49.070Z,32.00
2018-12-27T23:49:03.606Z,37.90
2018-12-27T23:54:18.203Z,34.33
2018-12-27T23:59:33.114Z,30.73
